Time;durP1;ratioP1;P1;durP2;ratioP2;P2;SDS_P1;SDS_P2;PMS_P1;PMS_P2;Temp;Humidity;BMP_temperature;BMP_pressure;BME280_temperature;BME280_humidity;BME280_pressure;Samples;Min_cycle;Max_cycle;Signal;HPM_P1;HPM_P2
2024/02/08 00:01:24;;;;;;;6.93;1.80;;;1.20;99.90;;;;;;5029931;28;20301;-50
2024/02/08 00:03:51;;;;;;;6.90;2.13;;;1.30;99.90;;;;;;5033721;28;20634;-51
2024/02/08 00:06:18;;;;;;;5.20;2.20;;;1.30;99.90;;;;;;5024434;28;20210;-48
2024/02/08 00:08:44;;;;;;;6.20;1.70;;;1.30;99.90;;;;;;5037679;28;20223;-50
2024/02/08 00:11:13;;;;;;;8.83;2.20;;;1.30;99.90;;;;;;5036891;28;20224;-52
2024/02/08 00:13:39;;;;;;;10.47;2.57;;;1.30;99.90;;;;;;5020651;28;20776;-51
2024/02/08 00:16:07;;;;;;;8.93;2.27;;;1.30;99.90;;;;;;5037806;28;20223;-54
2024/02/08 00:18:36;;;;;;;6.57;1.83;;;1.30;99.90;;;;;;5024735;28;20210;-51
2024/02/08 00:21:02;;;;;;;4.80;2.10;;;1.30;99.90;;;;;;5028317;28;20203;-53
2024/02/08 00:23:29;;;;;;;7.87;2.17;;;1.20;99.90;;;;;;5032277;28;20223;-51
2024/02/08 00:25:56;;;;;;;4.53;1.97;;;1.20;99.90;;;;;;5041412;28;20286;-55
2024/02/08 00:28:24;;;;;;;7.23;2.30;;;1.30;99.90;;;;;;5014981;28;20301;-48
2024/02/08 00:30:53;;;;;;;8.10;2.00;;;1.30;99.90;;;;;;5041961;28;20273;-49
2024/02/08 00:33:19;;;;;;;11.13;2.33;;;1.20;99.90;;;;;;5029018;28;20850;-47
2024/02/08 00:35:48;;;;;;;4.20;2.30;;;1.20;99.90;;;;;;5029680;28;20235;-52
2024/02/08 00:38:14;;;;;;;11.60;2.27;;;1.20;99.90;;;;;;5025850;28;20905;-51
2024/02/08 00:40:41;;;;;;;4.13;2.07;;;1.20;99.90;;;;;;5036887;28;20296;-51
2024/02/08 00:43:11;;;;;;;9.53;2.23;;;1.20;99.90;;;;;;5019891;28;20219;-53
2024/02/08 00:45:39;;;;;;;8.03;1.80;;;1.20;99.90;;;;;;5039705;28;20195;-49
2024/02/08 00:48:06;;;;;;;6.27;2.20;;;1.10;99.90;;;;;;5033425;28;20290;-50
2024/02/08 00:50:34;;;;;;;6.27;2.13;;;1.10;99.90;;;;;;5035986;28;20203;-51
2024/02/08 00:53:05;;;;;;;6.07;1.80;;;1.10;99.90;;;;;;5027687;28;20242;-53
2024/02/08 00:55:33;;;;;;;7.00;1.97;;;1.10;99.90;;;;;;5035534;28;20592;-49
2024/02/08 00:58:00;;;;;;;10.13;2.47;;;1.10;99.90;;;;;;5037436;28;20642;-50
2024/02/08 01:00:30;;;;;;;6.40;2.37;;;1.10;99.90;;;;;;5017421;28;20243;-49
2024/02/08 01:02:59;;;;;;;6.40;2.30;;;1.10;99.90;;;;;;5037498;28;20223;-53
2024/02/08 01:05:25;;;;;;;5.37;2.67;;;1.10;99.90;;;;;;5026381;28;20196;-48
2024/02/08 01:07:52;;;;;;;8.73;2.50;;;1.10;99.90;;;;;;5032089;28;20649;-53
2024/02/08 01:10:19;;;;;;;7.73;1.97;;;1.10;99.90;;;;;;5036849;28;20202;-52
2024/02/08 01:12:46;;;;;;;5.40;2.13;;;1.10;99.90;;;;;;5039578;28;20541;-52
2024/02/08 01:15:14;;;;;;;3.87;1.73;;;1.10;99.90;;;;;;5014528;28;20296;-47
2024/02/08 01:17:41;;;;;;;12.23;2.27;;;1.10;99.90;;;;;;5024681;28;20207;-55
2024/02/08 01:20:10;;;;;;;9.37;2.47;;;1.10;99.90;;;;;;5030750;28;20258;-49
2024/02/08 01:22:37;;;;;;;9.70;2.50;;;1.10;99.90;;;;;;5020966;28;20286;-52
2024/02/08 01:25:05;;;;;;;8.13;2.27;;;1.10;99.90;;;;;;5030366;28;20954;-48
2024/02/08 01:27:31;;;;;;;9.47;2.73;;;1.10;99.90;;;;;;5040779;28;20201;-50
2024/02/08 01:29:59;;;;;;;12.70;2.33;;;1.10;99.90;;;;;;5015799;28;20238;-50
2024/02/08 01:32:27;;;;;;;4.20;2.10;;;1.20;99.90;;;;;;5041432;28;20199;-47
2024/02/08 01:34:54;;;;;;;9.57;2.30;;;1.20;99.90;;;;;;5029490;28;20200;-49
2024/02/08 01:37:23;;;;;;;8.10;2.20;;;1.20;99.90;;;;;;5033436;28;20207;-48
2024/02/08 01:39:50;;;;;;;8.47;2.17;;;1.20;99.90;;;;;;5028606;28;20199;-49
2024/02/08 01:42:17;;;;;;;6.37;2.53;;;1.20;99.90;;;;;;5036386;28;20583;-49
2024/02/08 01:44:46;;;;;;;4.70;2.13;;;1.20;99.90;;;;;;5014582;28;20682;-53
2024/02/08 01:47:13;;;;;;;8.90;2.50;;;1.20;99.90;;;;;;5033619;28;20200;-48
2024/02/08 01:49:41;;;;;;;9.77;2.50;;;1.30;99.90;;;;;;5037482;28;20211;-52
2024/02/08 01:52:10;;;;;;;7.33;3.50;;;1.30;99.90;;;;;;5024032;28;20211;-53
2024/02/08 01:54:43;;;;;;;10.50;2.57;;;1.30;99.90;;;;;;5022897;28;20238;-53
2024/02/08 01:57:11;;;;;;;7.93;2.40;;;1.30;99.90;;;;;;5029366;28;20226;-48
2024/02/08 01:59:38;;;;;;;7.60;2.83;;;1.30;99.90;;;;;;5025431;28;20252;-54
2024/02/08 02:02:07;;;;;;;8.10;2.07;;;1.30;99.90;;;;;;5028788;28;20195;-51
2024/02/08 02:04:34;;;;;;;6.10;2.57;;;1.40;99.90;;;;;;5036746;28;20219;-51
2024/02/08 02:07:02;;;;;;;3.63;1.90;;;1.40;99.90;;;;;;5020341;28;20199;-48
2024/02/08 02:09:30;;;;;;;6.83;2.00;;;1.40;99.90;;;;;;5024173;28;20767;-52
2024/02/08 02:12:02;;;;;;;11.67;3.03;;;1.40;99.90;;;;;;5030033;28;20669;-49
2024/02/08 02:14:30;;;;;;;10.50;2.90;;;1.50;99.90;;;;;;5030379;28;20246;-52
2024/02/08 02:17:12;;;;;;;7.13;2.30;;;1.50;99.90;;;;;;5012268;28;20222;-54
2024/02/08 02:19:39;;;;;;;10.57;2.63;;;1.50;99.90;;;;;;5037868;28;20195;-50
2024/02/08 02:22:09;;;;;;;6.00;2.33;;;1.50;99.90;;;;;;5031547;28;20211;-53
2024/02/08 02:24:37;;;;;;;8.17;2.47;;;1.40;99.90;;;;;;5032186;28;20219;-52
2024/02/08 02:27:05;;;;;;;9.13;2.60;;;1.50;99.90;;;;;;5032375;28;20197;-50
2024/02/08 02:29:33;;;;;;;9.47;2.40;;;1.50;99.90;;;;;;5031369;28;20203;-50
2024/02/08 02:32:01;;;;;;;11.13;2.27;;;1.40;99.90;;;;;;5014463;28;20261;-52
2024/02/08 02:34:30;;;;;;;7.53;2.23;;;1.50;99.90;;;;;;5033608;28;20231;-51
2024/02/08 02:36:59;;;;;;;10.13;2.57;;;1.50;99.90;;;;;;5028405;28;20245;-53
2024/02/08 02:39:31;;;;;;;8.27;2.63;;;1.50;99.90;;;;;;5018383;28;20297;-51
2024/02/08 02:41:58;;;;;;;5.50;2.00;;;1.50;99.90;;;;;;5038876;28;20207;-53
2024/02/08 02:44:27;;;;;;;7.77;2.47;;;1.50;99.90;;;;;;5034846;28;20239;-50
2024/02/08 02:46:54;;;;;;;4.43;2.47;;;1.40;99.90;;;;;;5032932;28;20199;-47
2024/02/08 02:49:22;;;;;;;4.27;2.33;;;1.50;99.90;;;;;;5015429;28;20992;-51
2024/02/08 02:51:49;;;;;;;3.73;2.27;;;1.50;99.90;;;;;;5040949;28;20302;-50
2024/02/08 02:54:16;;;;;;;5.80;1.67;;;1.40;99.90;;;;;;5025379;28;20231;-54
2024/02/08 02:56:47;;;;;;;4.10;1.70;;;1.40;99.90;;;;;;5043822;28;20772;-50
2024/02/08 02:59:16;;;;;;;9.30;2.27;;;1.50;99.90;;;;;;5037507;28;20206;-51
2024/02/08 03:01:47;;;;;;;7.73;2.57;;;1.50;99.90;;;;;;5043784;28;20243;-48
2024/02/08 03:04:14;;;;;;;4.33;2.10;;;1.50;99.90;;;;;;5017520;28;20238;-53
2024/02/08 03:06:43;;;;;;;8.60;2.30;;;1.50;99.90;;;;;;5042403;28;20638;-48
2024/02/08 03:09:15;;;;;;;5.10;2.00;;;1.50;99.90;;;;;;5028887;28;20286;-53
2024/02/08 03:11:42;;;;;;;7.03;2.63;;;1.50;99.90;;;;;;5044188;28;20258;-48
2024/02/08 03:14:10;;;;;;;8.70;2.37;;;1.50;99.90;;;;;;5036416;28;20215;-54
2024/02/08 03:16:36;;;;;;;8.87;2.80;;;1.50;99.90;;;;;;5045135;28;20614;-48
2024/02/08 03:19:05;;;;;;;11.50;2.50;;;1.50;99.90;;;;;;5033811;28;20199;-55
2024/02/08 03:21:35;;;;;;;5.30;2.37;;;1.50;99.90;;;;;;5019112;28;22472;-51
2024/02/08 03:24:07;;;;;;;5.33;2.40;;;1.50;99.90;;;;;;5034680;28;20223;-52
2024/02/08 03:26:40;;;;;;;8.33;2.17;;;1.50;99.90;;;;;;5037288;28;20323;-52
2024/02/08 03:29:11;;;;;;;6.33;2.33;;;1.50;99.90;;;;;;5032094;28;20230;-53
2024/02/08 03:31:45;;;;;;;8.57;2.33;;;1.50;99.90;;;;;;5034662;28;20250;-52
2024/02/08 03:34:16;;;;;;;9.23;2.90;;;1.50;99.90;;;;;;5037494;28;20230;-53
2024/02/08 03:36:45;;;;;;;10.07;2.50;;;1.50;99.90;;;;;;5017275;28;20220;-50
2024/02/08 03:39:24;;;;;;;6.13;2.17;;;1.50;99.90;;;;;;5036470;28;20199;-55
2024/02/08 03:41:52;;;;;;;8.93;2.33;;;1.60;99.90;;;;;;5030407;28;20655;-52
2024/02/08 03:44:21;;;;;;;11.27;2.20;;;1.50;99.90;;;;;;5027983;28;20435;-50
2024/02/08 03:46:50;;;;;;;8.50;2.33;;;1.60;99.90;;;;;;5034520;28;20203;-48
2024/02/08 03:49:17;;;;;;;7.60;2.13;;;1.60;99.90;;;;;;5034349;28;20211;-50
2024/02/08 03:51:44;;;;;;;9.03;2.80;;;1.60;99.90;;;;;;5018700;28;20212;-47
2024/02/08 03:54:11;;;;;;;5.17;2.20;;;1.60;99.90;;;;;;5039266;28;20276;-52
2024/02/08 03:56:37;;;;;;;7.83;2.53;;;1.60;99.90;;;;;;5041004;28;20276;-53
2024/02/08 03:59:07;;;;;;;10.80;2.97;;;1.70;99.90;;;;;;5033395;28;20302;-53
2024/02/08 04:01:36;;;;;;;7.30;2.47;;;1.70;99.90;;;;;;5039264;28;20198;-49
2024/02/08 04:04:12;;;;;;;7.80;2.60;;;1.70;99.90;;;;;;5031375;28;20223;-51
2024/02/08 04:06:49;;;;;;;9.07;3.20;;;1.70;99.90;;;;;;5038625;28;20197;-48
2024/02/08 04:09:33;;;;;;;11.57;2.60;;;1.70;99.90;;;;;;5007524;28;20209;-50
2024/02/08 04:56:08;;;;;;;8.23;2.47;;;2.00;99.90;;;;;;5007618;28;20227;-51
2024/02/08 04:58:37;;;;;;;10.50;2.53;;;2.00;99.90;;;;;;5024807;28;20223;-54
2024/02/08 05:01:04;;;;;;;5.77;2.93;;;2.00;99.90;;;;;;5036970;28;20208;-51
2024/02/08 05:03:37;;;;;;;9.33;2.90;;;2.00;99.90;;;;;;5022496;28;20227;-51
2024/02/08 05:06:10;;;;;;;8.43;3.13;;;2.00;99.90;;;;;;5032295;28;20204;-50
2024/02/08 05:08:39;;;;;;;10.70;3.17;;;2.00;99.90;;;;;;5035509;28;20218;-51
2024/02/08 05:11:09;;;;;;;7.40;2.63;;;2.00;99.90;;;;;;5015729;28;20227;-50
2024/02/08 05:13:40;;;;;;;8.77;2.90;;;2.00;99.90;;;;;;5031086;28;20253;-53
2024/02/08 05:16:08;;;;;;;8.20;2.70;;;2.00;99.90;;;;;;5034206;28;20222;-53
2024/02/08 05:18:36;;;;;;;11.00;2.80;;;1.90;99.90;;;;;;5036015;28;20207;-51
2024/02/08 05:21:06;;;;;;;7.30;2.97;;;1.90;99.90;;;;;;5028796;28;20302;-51
2024/02/08 05:23:38;;;;;;;9.40;3.00;;;1.90;99.90;;;;;;5035490;28;20219;-51
2024/02/08 05:26:07;;;;;;;7.00;3.30;;;2.00;99.90;;;;;;5040194;28;20286;-49
2024/02/08 05:28:34;;;;;;;6.77;3.47;;;1.90;99.90;;;;;;5003727;28;21041;-52
2024/02/08 05:31:01;;;;;;;7.77;2.47;;;2.00;99.90;;;;;;5025984;28;20213;-52
2024/02/08 05:33:29;;;;;;;7.80;3.00;;;1.90;99.90;;;;;;5031366;28;20491;-53
2024/02/08 05:35:57;;;;;;;11.13;3.13;;;1.90;99.90;;;;;;5026951;28;20214;-53
2024/02/08 05:38:24;;;;;;;10.57;2.93;;;2.00;99.90;;;;;;5029832;28;20278;-52
2024/02/08 05:40:53;;;;;;;7.40;4.03;;;1.90;99.90;;;;;;5034308;28;20256;-51
2024/02/08 05:43:28;;;;;;;10.23;2.87;;;1.90;99.90;;;;;;5004508;28;20223;-51
2024/02/08 05:45:55;;;;;;;9.80;3.33;;;1.90;99.90;;;;;;5032717;28;20463;-50
2024/02/08 05:48:27;;;;;;;5.53;3.40;;;1.90;99.90;;;;;;5033805;28;20228;-53
2024/02/08 05:50:56;;;;;;;7.03;3.20;;;1.90;99.90;;;;;;5030429;28;20203;-53
2024/02/08 05:53:24;;;;;;;10.87;3.23;;;1.90;99.90;;;;;;5016165;28;20203;-50
2024/02/08 05:55:53;;;;;;;8.37;3.23;;;1.90;99.90;;;;;;5032960;28;20252;-53
2024/02/08 05:58:20;;;;;;;6.67;3.73;;;1.90;99.90;;;;;;5001821;28;20308;-53
2024/02/08 06:00:52;;;;;;;8.83;3.87;;;1.90;99.90;;;;;;5025964;28;20210;-51
2024/02/08 06:03:27;;;;;;;7.07;3.10;;;2.00;99.90;;;;;;5031394;28;20222;-53
2024/02/08 06:06:06;;;;;;;10.93;2.70;;;1.90;99.90;;;;;;5032688;28;20198;-53
2024/02/08 06:08:39;;;;;;;7.80;3.57;;;2.00;99.90;;;;;;5031250;28;20196;-54
2024/02/08 06:11:16;;;;;;;5.40;2.93;;;1.90;99.90;;;;;;5034752;28;20221;-48
2024/02/08 06:13:50;;;;;;;11.00;3.60;;;2.00;99.90;;;;;;5013740;28;20222;-49
2024/02/08 06:16:26;;;;;;;8.57;3.30;;;1.90;99.90;;;;;;5025639;28;20221;-54
2024/02/08 06:18:57;;;;;;;8.10;3.20;;;1.90;99.90;;;;;;5039273;28;20249;-52
2024/02/08 06:21:38;;;;;;;9.70;3.27;;;1.90;99.90;;;;;;5034271;28;20982;-54
2024/02/08 06:26:55;;;;;;;9.77;3.20;;;1.90;99.90;;;;;;5035955;28;20227;-50
2024/02/08 06:29:26;;;;;;;13.77;3.13;;;1.90;99.90;;;;;;5011032;28;20596;-50
2024/02/08 06:32:02;;;;;;;6.73;2.83;;;1.90;99.90;;;;;;5043129;28;20195;-50
2024/02/08 06:34:42;;;;;;;14.60;3.97;;;1.90;99.90;;;;;;5035630;28;20222;-53
2024/02/08 06:37:26;;;;;;;9.70;3.70;;;1.90;99.90;;;;;;5033666;28;20222;-51
2024/02/08 06:39:56;;;;;;;8.80;3.03;;;1.80;99.90;;;;;;5033722;28;20216;-52
2024/02/08 06:42:44;;;;;;;6.90;3.37;;;1.90;99.90;;;;;;5036337;28;20191;-50
2024/02/08 06:45:48;;;;;;;8.67;3.50;;;1.90;99.90;;;;;;5017860;28;20230;-53
2024/02/08 06:48:35;;;;;;;7.70;3.53;;;1.90;99.90;;;;;;5035655;28;20207;-50
2024/02/08 07:37:55;;;;;;;5.53;2.73;;;1.90;99.90;;;;;;5037262;28;20223;-49
2024/02/08 07:40:26;;;;;;;9.90;3.20;;;1.90;99.90;;;;;;5039537;28;20729;-50
2024/02/08 07:43:16;;;;;;;10.47;3.50;;;1.90;99.90;;;;;;5033817;28;20211;-49
2024/02/08 07:45:45;;;;;;;8.37;2.80;;;2.00;99.90;;;;;;5032523;28;20203;-49
2024/02/08 07:48:14;;;;;;;9.40;3.43;;;2.00;99.90;;;;;;5013101;28;20236;-53
2024/02/08 07:50:52;;;;;;;9.13;3.70;;;2.00;99.90;;;;;;5028506;28;20266;-52
2024/02/08 07:53:34;;;;;;;10.40;3.20;;;2.00;99.90;;;;;;5040459;28;20304;-53
2024/02/08 07:56:29;;;;;;;8.87;3.33;;;2.00;99.90;;;;;;5035597;28;20717;-50
2024/02/08 07:59:03;;;;;;;8.33;4.20;;;2.10;99.90;;;;;;5037044;28;20742;-51
2024/02/08 08:01:32;;;;;;;10.03;3.67;;;2.10;99.90;;;;;;5016975;28;20198;-52
2024/02/08 08:04:00;;;;;;;7.47;3.13;;;2.10;99.90;;;;;;5026296;28;20731;-54
2024/02/08 08:06:34;;;;;;;12.43;3.83;;;2.20;99.90;;;;;;5037847;28;20577;-52
2024/02/08 08:09:18;;;;;;;6.63;3.30;;;2.20;99.90;;;;;;5041457;28;20203;-51
2024/02/08 08:11:46;;;;;;;11.60;3.60;;;2.20;99.90;;;;;;5023707;28;20210;-53
2024/02/08 08:14:55;;;;;;;8.30;3.47;;;2.20;99.90;;;;;;5041738;28;20215;-50
2024/02/08 08:17:16;;;;;;;9.73;3.70;;;2.30;99.90;;;;;;5016925;28;20222;-52
2024/02/08 08:19:45;;;;;;;7.07;3.10;;;2.30;99.90;;;;;;5031031;28;20256;-49
2024/02/08 08:25:28;;;;;;;11.43;4.00;;;2.30;99.90;;;;;;5038968;28;20750;-49
2024/02/08 08:28:10;;;;;;;10.50;3.67;;;2.30;99.90;;;;;;5038241;28;20673;-52
2024/02/08 08:30:39;;;;;;;10.70;3.20;;;2.40;99.90;;;;;;5037414;28;20194;-54
2024/02/08 08:33:08;;;;;;;13.10;4.07;;;2.40;99.90;;;;;;5016729;28;20314;-52
2024/02/08 08:38:29;;;;;;;13.97;3.90;;;2.40;99.90;;;;;;5035994;28;20705;-51
2024/02/08 08:41:14;;;;;;;12.90;3.60;;;2.50;99.90;;;;;;5037776;28;20601;-52
2024/02/08 08:43:52;;;;;;;13.50;3.87;;;2.50;99.90;;;;;;5028726;28;20214;-50
2024/02/08 08:46:23;;;;;;;11.20;3.67;;;2.50;99.90;;;;;;5039965;28;20199;-53
2024/02/08 08:48:54;;;;;;;8.03;3.97;;;2.50;99.90;;;;;;5013180;28;20203;-52
2024/02/08 08:51:30;;;;;;;8.83;3.37;;;2.60;99.90;;;;;;5037433;28;20207;-53
2024/02/08 08:54:00;;;;;;;12.07;3.53;;;2.60;99.90;;;;;;5033727;28;20241;-49
2024/02/08 08:56:29;;;;;;;11.67;3.67;;;2.60;99.90;;;;;;5032037;28;20206;-50
2024/02/08 08:58:58;;;;;;;9.63;3.43;;;2.70;99.90;;;;;;5039910;28;20247;-52
2024/02/08 09:01:26;;;;;;;10.63;3.37;;;2.70;99.90;;;;;;5035175;28;20370;-51
2024/02/08 09:04:09;;;;;;;10.30;4.00;;;2.70;99.90;;;;;;5014638;28;20226;-53
2024/02/08 09:06:41;;;;;;;4.87;3.37;;;2.70;99.90;;;;;;5027935;28;20268;-51
2024/02/08 09:11:57;;;;;;;16.33;3.47;;;2.80;99.90;;;;;;5025708;28;20309;-53
2024/02/08 09:14:30;;;;;;;8.87;3.47;;;2.90;99.90;;;;;;5038733;28;20249;-50
2024/02/08 09:16:57;;;;;;;12.63;3.90;;;2.90;99.90;;;;;;5039482;28;20616;-52
2024/02/08 09:19:28;;;;;;;9.10;3.43;;;2.90;99.90;;;;;;5002268;28;20688;-53
2024/02/08 09:21:59;;;;;;;7.23;3.00;;;2.90;99.90;;;;;;5028016;28;20223;-48
2024/02/08 09:24:26;;;;;;;9.93;3.73;;;2.90;99.90;;;;;;5032440;28;20219;-52
2024/02/08 09:27:15;;;;;;;8.30;2.97;;;3.00;99.90;;;;;;5034516;28;20235;-52
2024/02/08 09:29:42;;;;;;;11.33;3.40;;;3.00;99.90;;;;;;5038988;28;20761;-50
2024/02/08 09:32:43;;;;;;;6.10;3.70;;;3.00;99.90;;;;;;5036041;28;20195;-51
2024/02/08 09:35:11;;;;;;;10.87;3.90;;;3.10;99.90;;;;;;5002348;28;20188;-52
2024/02/08 09:37:45;;;;;;;13.97;4.43;;;3.10;99.90;;;;;;5032933;28;20301;-49
2024/02/08 09:40:36;;;;;;;9.20;3.70;;;3.10;99.90;;;;;;5019702;28;20977;-52
2024/02/08 09:43:16;;;;;;;10.27;3.97;;;3.10;99.90;;;;;;5024782;28;20221;-53
2024/02/08 09:45:44;;;;;;;10.30;3.60;;;3.20;99.90;;;;;;5039685;28;20205;-50
2024/02/08 09:48:25;;;;;;;8.07;3.40;;;3.20;99.90;;;;;;5030091;28;20272;-51
2024/02/08 09:50:59;;;;;;;10.17;3.80;;;3.20;99.90;;;;;;5001444;28;20287;-49
2024/02/08 09:53:29;;;;;;;9.37;4.17;;;3.20;99.90;;;;;;5024924;28;20219;-49
2024/02/08 09:55:59;;;;;;;11.60;3.80;;;3.20;99.90;;;;;;5031285;28;20284;-52
2024/02/08 09:58:33;;;;;;;7.23;3.13;;;3.30;99.90;;;;;;5024085;28;20590;-49
2024/02/08 10:01:01;;;;;;;19.83;4.03;;;3.30;99.90;;;;;;5028087;28;20742;-51
2024/02/08 10:03:35;;;;;;;8.47;4.23;;;3.30;99.90;;;;;;5040180;28;20207;-50
2024/02/08 10:06:13;;;;;;;8.03;3.97;;;3.40;99.90;;;;;;4994509;28;20206;-54
2024/02/08 10:08:51;;;;;;;7.77;4.17;;;3.40;99.90;;;;;;5030710;28;20219;-51
2024/02/08 10:11:27;;;;;;;13.00;4.30;;;3.50;99.90;;;;;;5026941;28;20208;-52
2024/02/08 10:14:01;;;;;;;10.37;4.10;;;3.50;99.90;;;;;;5030158;28;20408;-51
2024/02/08 10:16:42;;;;;;;11.87;3.50;;;3.50;99.90;;;;;;5042158;28;20191;-53
2024/02/08 10:19:27;;;;;;;10.77;4.07;;;3.60;99.90;;;;;;5039267;28;20219;-50
2024/02/08 10:21:57;;;;;;;10.57;3.80;;;3.60;99.90;;;;;;4996622;28;20833;-49
2024/02/08 10:26:17;;;;;;;7.10;3.67;;;3.60;99.90;;;;;;5030951;28;20229;-51
2024/02/08 10:27:19;;;;;;;8.87;3.53;;;3.70;99.90;;;;;;5038077;28;20570;-49
2024/02/08 10:29:47;;;;;;;9.17;3.97;;;3.70;99.90;;;;;;5011520;28;20207;-50
2024/02/08 10:32:18;;;;;;;10.50;4.07;;;3.70;99.90;;;;;;5030763;28;20196;-52
2024/02/08 10:34:45;;;;;;;16.97;4.27;;;3.70;99.90;;;;;;5024796;28;20306;-51
2024/02/08 10:37:46;;;;;;;11.43;4.00;;;3.70;99.90;;;;;;5010642;28;20569;-49
2024/02/08 10:40:28;;;;;;;8.60;3.87;;;3.80;99.90;;;;;;5032882;28;20308;-53
2024/02/08 10:42:53;;;;;;;10.23;3.83;;;3.80;99.90;;;;;;5024325;28;21589;-53
2024/02/08 10:45:23;;;;;;;18.27;4.27;;;3.80;99.90;;;;;;5035488;28;20222;-49
2024/02/08 10:47:55;;;;;;;12.87;4.37;;;3.90;99.90;;;;;;5033916;28;20218;-51
2024/02/08 10:50:27;;;;;;;9.03;3.97;;;3.90;99.90;;;;;;5031524;28;20304;-53
2024/02/08 10:53:00;;;;;;;9.53;3.80;;;4.00;99.90;;;;;;5013174;28;20302;-49
2024/02/08 10:55:36;;;;;;;9.73;3.50;;;4.10;99.90;;;;;;5028359;28;20575;-52
2024/02/08 10:58:21;;;;;;;8.33;3.80;;;4.10;99.90;;;;;;5033046;28;20213;-48
2024/02/08 11:01:06;;;;;;;11.13;3.67;;;4.10;99.90;;;;;;5020283;28;20211;-49
2024/02/08 11:03:42;;;;;;;8.23;3.70;;;4.10;99.90;;;;;;5034064;28;20212;-50
2024/02/08 11:06:26;;;;;;;9.40;3.70;;;4.10;99.90;;;;;;5027950;28;20192;-48
2024/02/08 11:09:09;;;;;;;9.83;3.20;;;4.10;99.90;;;;;;5004198;28;20227;-48
2024/02/08 11:11:41;;;;;;;11.03;3.67;;;4.20;99.90;;;;;;5034361;28;20544;-49
2024/02/08 11:14:11;;;;;;;10.00;3.70;;;4.20;99.90;;;;;;5026208;28;20245;-48
2024/02/08 11:16:42;;;;;;;9.87;4.07;;;4.20;99.90;;;;;;5042995;28;20194;-50
2024/02/08 11:19:16;;;;;;;13.10;4.07;;;4.30;99.90;;;;;;5035333;28;20227;-51
2024/02/08 11:21:44;;;;;;;9.23;3.70;;;4.30;99.90;;;;;;5029616;28;20206;-51
2024/02/08 11:24:14;;;;;;;6.33;3.30;;;4.30;99.90;;;;;;5020319;28;20224;-51
2024/02/08 11:26:54;;;;;;;7.80;3.40;;;4.40;99.90;;;;;;5028790;28;20199;-49
2024/02/08 11:29:21;;;;;;;8.03;3.33;;;4.40;99.90;;;;;;5035862;28;20202;-49
2024/02/08 11:31:49;;;;;;;9.43;3.80;;;4.30;99.90;;;;;;5024720;28;20993;-47
2024/02/08 11:34:24;;;;;;;8.90;3.67;;;4.40;99.90;;;;;;5044660;28;20238;-48
2024/02/08 11:36:53;;;;;;;10.93;4.60;;;4.40;99.90;;;;;;5026843;28;20210;-49
2024/02/08 11:39:27;;;;;;;10.07;3.60;;;4.50;99.90;;;;;;5013317;28;20226;-48
2024/02/08 11:42:00;;;;;;;11.13;3.73;;;4.40;99.90;;;;;;5031822;28;20218;-51
2024/02/08 11:44:29;;;;;;;6.97;3.27;;;4.50;99.90;;;;;;5031075;28;20234;-52
2024/02/08 11:46:59;;;;;;;16.73;3.33;;;4.50;99.90;;;;;;5029197;28;20219;-48
2024/02/08 11:49:35;;;;;;;8.70;3.70;;;4.50;99.90;;;;;;5031496;28;20195;-50
2024/02/08 11:52:06;;;;;;;9.00;3.97;;;4.60;99.90;;;;;;5032209;28;20214;-51
2024/02/08 11:54:37;;;;;;;12.83;3.30;;;4.60;99.90;;;;;;5012939;28;20257;-50
2024/02/08 11:57:09;;;;;;;6.97;3.40;;;4.60;99.90;;;;;;5039349;28;20231;-50
2024/02/08 11:59:37;;;;;;;5.33;3.23;;;4.50;99.90;;;;;;5032105;28;20222;-50
2024/02/08 12:02:07;;;;;;;7.60;2.50;;;4.50;99.90;;;;;;5034676;28;20854;-52
2024/02/08 12:04:36;;;;;;;10.57;2.63;;;4.50;99.90;;;;;;5038546;28;20223;-50
2024/02/08 12:07:04;;;;;;;13.20;3.37;;;4.50;99.90;;;;;;5036850;28;20199;-46
2024/02/08 12:09:32;;;;;;;5.03;2.87;;;4.50;99.90;;;;;;5007765;28;20257;-49
2024/02/08 12:12:00;;;;;;;7.90;2.90;;;4.60;99.90;;;;;;5034037;28;20200;-50
2024/02/08 12:14:28;;;;;;;5.27;3.10;;;4.60;99.90;;;;;;5034909;28;20224;-51
2024/02/08 12:16:58;;;;;;;10.93;2.93;;;4.60;99.90;;;;;;5031602;28;20195;-51
2024/02/08 12:19:25;;;;;;;9.10;3.03;;;4.70;99.90;;;;;;5035388;28;20215;-52
2024/02/08 12:21:58;;;;;;;10.33;2.87;;;4.70;99.90;;;;;;5025607;28;20202;-49
2024/02/08 12:24:26;;;;;;;9.77;3.27;;;4.70;99.90;;;;;;5007670;28;20226;-48
2024/02/08 12:26:57;;;;;;;6.63;3.33;;;4.80;99.90;;;;;;5030644;28;20249;-50
2024/02/08 12:29:29;;;;;;;8.30;2.60;;;4.80;99.90;;;;;;5026349;28;20227;-52
2024/02/08 12:31:57;;;;;;;4.50;1.80;;;4.80;99.90;;;;;;5032872;28;20239;-50
2024/02/08 12:34:31;;;;;;;7.43;2.43;;;4.90;99.90;;;;;;5021923;28;20219;-51
2024/02/08 12:37:04;;;;;;;13.60;4.03;;;4.90;99.90;;;;;;5023073;28;20207;-53
2024/02/08 12:39:34;;;;;;;11.47;3.07;;;4.80;99.90;;;;;;5003082;28;20231;-51
2024/02/08 12:42:04;;;;;;;7.07;2.40;;;4.80;99.90;;;;;;5032184;28;20286;-51
2024/02/08 12:44:35;;;;;;;5.73;2.60;;;4.80;99.90;;;;;;5036759;28;20223;-51
2024/02/08 12:47:06;;;;;;;7.97;3.10;;;4.80;99.90;;;;;;5019773;28;20199;-47
2024/02/08 12:49:33;;;;;;;7.50;2.77;;;4.80;99.90;;;;;;5020690;28;20219;-51
2024/02/08 12:52:03;;;;;;;8.40;2.73;;;4.90;99.90;;;;;;5016804;28;20258;-48
2024/02/08 12:54:30;;;;;;;7.07;2.80;;;4.90;99.90;;;;;;5015888;28;20219;-51
2024/02/08 12:57:07;;;;;;;8.20;3.13;;;5.00;99.90;;;;;;5026285;28;20321;-51
2024/02/08 12:59:36;;;;;;;5.20;3.17;;;5.00;99.90;;;;;;5038573;28;20627;-52
2024/02/08 13:02:08;;;;;;;8.80;3.20;;;5.00;99.90;;;;;;5031399;28;20534;-49
2024/02/08 13:04:43;;;;;;;17.03;2.67;;;5.10;99.90;;;;;;5027217;28;20230;-48
2024/02/08 13:07:13;;;;;;;8.33;3.60;;;5.10;99.90;;;;;;5032250;28;20565;-50
2024/02/08 13:09:40;;;;;;;6.07;2.90;;;5.10;99.90;;;;;;5021958;28;20262;-50
2024/02/08 13:12:15;;;;;;;7.23;2.90;;;5.10;99.90;;;;;;5013708;28;20199;-50
2024/02/08 13:14:56;;;;;;;7.03;2.90;;;5.10;99.90;;;;;;5039984;28;20292;-52
2024/02/08 13:17:26;;;;;;;12.07;3.57;;;5.10;99.90;;;;;;5031798;28;20200;-53
2024/02/08 13:19:54;;;;;;;9.63;2.90;;;5.10;99.90;;;;;;5012809;28;20230;-50
2024/02/08 13:22:24;;;;;;;8.40;3.20;;;5.10;99.90;;;;;;5032770;28;20265;-50
2024/02/08 13:24:52;;;;;;;8.13;3.40;;;5.10;99.90;;;;;;5027211;28;20257;-53
2024/02/08 13:27:24;;;;;;;8.27;3.10;;;5.10;99.90;;;;;;5009531;28;20204;-51
2024/02/08 13:29:52;;;;;;;6.37;2.40;;;5.10;99.90;;;;;;5034842;28;20753;-48
2024/02/08 13:32:24;;;;;;;12.20;2.60;;;5.20;99.90;;;;;;5030301;28;20208;-51
2024/02/08 13:34:52;;;;;;;6.30;2.03;;;5.10;99.90;;;;;;5036341;28;20199;-52
2024/02/08 13:37:18;;;;;;;5.03;2.50;;;5.20;99.90;;;;;;5032095;28;20222;-51
2024/02/08 13:39:45;;;;;;;4.23;2.30;;;5.20;99.90;;;;;;5024578;28;20257;-52
2024/02/08 13:42:15;;;;;;;9.27;2.80;;;5.10;99.90;;;;;;5007267;28;20610;-52
2024/02/08 13:44:44;;;;;;;5.87;2.67;;;5.20;99.90;;;;;;5035058;28;20289;-49
2024/02/08 13:47:12;;;;;;;15.43;3.30;;;5.20;99.90;;;;;;5029523;28;20835;-52
2024/02/08 13:49:40;;;;;;;8.73;3.43;;;5.20;99.90;;;;;;5024561;28;20199;-52
2024/02/08 13:52:07;;;;;;;9.20;3.33;;;5.20;99.90;;;;;;5029699;28;20253;-51
2024/02/08 13:54:37;;;;;;;9.00;2.93;;;5.20;99.90;;;;;;5029513;28;20222;-51
2024/02/08 13:57:14;;;;;;;12.37;3.70;;;5.10;99.90;;;;;;4999833;28;20207;-50
2024/02/08 13:59:45;;;;;;;8.17;3.70;;;5.00;99.90;;;;;;5030402;28;20227;-50
2024/02/08 14:02:15;;;;;;;8.40;3.30;;;5.00;99.90;;;;;;5036490;28;20577;-52
2024/02/08 14:04:49;;;;;;;9.60;3.20;;;5.00;99.90;;;;;;5026736;28;20231;-53
2024/02/08 14:07:17;;;;;;;8.27;2.43;;;5.00;99.90;;;;;;5040087;28;20217;-49
2024/02/08 14:09:45;;;;;;;5.00;2.07;;;5.00;99.90;;;;;;5006086;28;20246;-52
2024/02/08 14:12:12;;;;;;;5.07;2.17;;;5.00;99.90;;;;;;5037346;28;20215;-48
2024/02/08 14:14:44;;;;;;;6.97;1.90;;;4.90;99.90;;;;;;4999174;28;20234;-51
2024/02/08 14:17:12;;;;;;;4.57;1.60;;;4.90;99.90;;;;;;5035954;28;20192;-51
2024/02/08 14:19:42;;;;;;;5.37;2.20;;;4.90;99.90;;;;;;5028826;28;20578;-53
2024/02/08 14:22:10;;;;;;;5.77;1.90;;;4.90;99.90;;;;;;5025942;28;20290;-50
2024/02/08 14:24:39;;;;;;;5.50;1.80;;;5.00;99.90;;;;;;5026046;28;20227;-54
2024/02/08 14:27:06;;;;;;;5.43;2.37;;;5.00;99.90;;;;;;5024549;28;20199;-50
2024/02/08 14:29:36;;;;;;;5.17;2.50;;;5.00;99.90;;;;;;5013200;28;20264;-53
2024/02/08 14:32:05;;;;;;;7.30;2.37;;;5.00;99.90;;;;;;5030943;28;20202;-52
2024/02/08 14:34:35;;;;;;;7.20;2.27;;;5.00;99.90;;;;;;5024478;28;20220;-54
2024/02/08 14:37:05;;;;;;;4.97;2.03;;;5.00;99.90;;;;;;5029404;28;20198;-51
2024/02/08 14:39:33;;;;;;;6.13;2.33;;;4.90;99.90;;;;;;5026784;28;20235;-50
2024/02/08 14:42:02;;;;;;;6.03;2.10;;;5.00;99.90;;;;;;5021783;28;20302;-53
2024/02/08 14:44:40;;;;;;;8.93;2.27;;;5.00;99.90;;;;;;5009225;28;20582;-51
2024/02/08 14:47:07;;;;;;;5.03;2.67;;;4.90;99.90;;;;;;5028310;28;20195;-51
2024/02/08 14:49:54;;;;;;;7.87;1.60;;;4.90;99.90;;;;;;5018749;28;20679;-52
2024/02/08 14:52:26;;;;;;;4.23;1.90;;;4.90;99.90;;;;;;5028097;28;20196;-52
2024/02/08 14:54:58;;;;;;;7.23;2.00;;;4.90;99.90;;;;;;5030764;28;20569;-53
2024/02/08 14:57:26;;;;;;;7.03;2.30;;;4.90;99.90;;;;;;5022366;28;20230;-52
2024/02/08 15:00:49;;;;;;;5.10;1.80;;;4.80;99.90;;;;;;5012335;28;20329;-51